sensor_id;sensor_type;location;lat;lon;timestamp;P1;durP1;ratioP1;P2;durP2;ratioP2
45893;SDS011;31603;51.148;16.932;2023-05-17T00:00:48;34.08;;;22.00;;
45893;SDS011;31603;51.148;16.932;2023-05-17T00:03:15;33.10;;;20.13;;
45893;SDS011;31603;51.148;16.932;2023-05-17T00:05:41;35.92;;;21.92;;
45893;SDS011;31603;51.148;16.932;2023-05-17T00:08:07;40.85;;;23.77;;
45893;SDS011;31603;51.148;16.932;2023-05-17T00:10:33;32.88;;;19.67;;
45893;SDS011;31603;51.148;16.932;2023-05-17T00:13:00;35.83;;;20.65;;
45893;SDS011;31603;51.148;16.932;2023-05-17T00:15:26;34.78;;;22.90;;
45893;SDS011;31603;51.148;16.932;2023-05-17T00:17:53;30.67;;;19.08;;
45893;SDS011;31603;51.148;16.932;2023-05-17T00:20:21;33.15;;;21.83;;
45893;SDS011;31603;51.148;16.932;2023-05-17T00:22:47;36.47;;;23.00;;
45893;SDS011;31603;51.148;16.932;2023-05-17T00:25:13;33.65;;;21.25;;
45893;SDS011;31603;51.148;16.932;2023-05-17T00:27:40;38.08;;;22.70;;
45893;SDS011;31603;51.148;16.932;2023-05-17T00:30:06;33.85;;;20.83;;
45893;SDS011;31603;51.148;16.932;2023-05-17T00:32:33;37.97;;;22.70;;
45893;SDS011;31603;51.148;16.932;2023-05-17T00:35:00;37.33;;;23.92;;
45893;SDS011;31603;51.148;16.932;2023-05-17T00:37:26;37.15;;;22.23;;
45893;SDS011;31603;51.148;16.932;2023-05-17T00:39:53;36.65;;;20.85;;
45893;SDS011;31603;51.148;16.932;2023-05-17T00:42:19;38.35;;;23.27;;
45893;SDS011;31603;51.148;16.932;2023-05-17T00:44:45;37.45;;;21.65;;
45893;SDS011;31603;51.148;16.932;2023-05-17T00:47:11;47.55;;;25.25;;
45893;SDS011;31603;51.148;16.932;2023-05-17T00:49:38;44.70;;;23.10;;
45893;SDS011;31603;51.148;16.932;2023-05-17T00:52:05;44.97;;;23.15;;
45893;SDS011;31603;51.148;16.932;2023-05-17T00:54:32;39.55;;;21.63;;
45893;SDS011;31603;51.148;16.932;2023-05-17T00:56:58;52.95;;;24.17;;
45893;SDS011;31603;51.148;16.932;2023-05-17T00:59:25;41.83;;;21.38;;
45893;SDS011;31603;51.148;16.932;2023-05-17T01:01:51;41.47;;;21.95;;
45893;SDS011;31603;51.148;16.932;2023-05-17T01:04:18;44.60;;;23.42;;
45893;SDS011;31603;51.148;16.932;2023-05-17T01:06:45;40.33;;;23.58;;
45893;SDS011;31603;51.148;16.932;2023-05-17T01:09:13;37.95;;;23.63;;
45893;SDS011;31603;51.148;16.932;2023-05-17T01:11:41;35.28;;;20.48;;
45893;SDS011;31603;51.148;16.932;2023-05-17T01:14:12;35.67;;;23.17;;
45893;SDS011;31603;51.148;16.932;2023-05-17T01:16:43;34.35;;;20.98;;
45893;SDS011;31603;51.148;16.932;2023-05-17T01:19:13;31.15;;;18.90;;
45893;SDS011;31603;51.148;16.932;2023-05-17T01:21:51;31.75;;;21.80;;
45893;SDS011;31603;51.148;16.932;2023-05-17T01:24:26;30.77;;;21.25;;
45893;SDS011;31603;51.148;16.932;2023-05-17T01:26:55;32.38;;;20.58;;
45893;SDS011;31603;51.148;16.932;2023-05-17T01:29:22;27.75;;;17.92;;
45893;SDS011;31603;51.148;16.932;2023-05-17T01:31:49;29.77;;;20.15;;
45893;SDS011;31603;51.148;16.932;2023-05-17T01:34:23;29.83;;;19.20;;
45893;SDS011;31603;51.148;16.932;2023-05-17T01:36:49;27.50;;;19.15;;
45893;SDS011;31603;51.148;16.932;2023-05-17T01:39:15;32.17;;;20.80;;
45893;SDS011;31603;51.148;16.932;2023-05-17T01:41:42;31.25;;;18.90;;
45893;SDS011;31603;51.148;16.932;2023-05-17T01:44:14;27.13;;;17.98;;
45893;SDS011;31603;51.148;16.932;2023-05-17T01:46:42;32.85;;;19.38;;
45893;SDS011;31603;51.148;16.932;2023-05-17T01:49:10;32.30;;;18.38;;
45893;SDS011;31603;51.148;16.932;2023-05-17T01:51:40;27.90;;;17.42;;
45893;SDS011;31603;51.148;16.932;2023-05-17T01:54:09;31.13;;;18.38;;
45893;SDS011;31603;51.148;16.932;2023-05-17T01:56:38;31.15;;;18.45;;
45893;SDS011;31603;51.148;16.932;2023-05-17T01:59:06;35.42;;;17.35;;
45893;SDS011;31603;51.148;16.932;2023-05-17T02:01:34;29.33;;;17.48;;
45893;SDS011;31603;51.148;16.932;2023-05-17T02:04:01;25.63;;;16.75;;
45893;SDS011;31603;51.148;16.932;2023-05-17T02:06:27;29.45;;;17.08;;
45893;SDS011;31603;51.148;16.932;2023-05-17T02:08:53;27.92;;;17.63;;
45893;SDS011;31603;51.148;16.932;2023-05-17T02:11:19;28.35;;;17.55;;
45893;SDS011;31603;51.148;16.932;2023-05-17T02:13:46;28.80;;;17.05;;
45893;SDS011;31603;51.148;16.932;2023-05-17T02:16:12;26.48;;;15.20;;
45893;SDS011;31603;51.148;16.932;2023-05-17T02:18:39;24.05;;;14.98;;
45893;SDS011;31603;51.148;16.932;2023-05-17T02:21:06;19.85;;;13.60;;
45893;SDS011;31603;51.148;16.932;2023-05-17T02:23:32;25.13;;;13.68;;
45893;SDS011;31603;51.148;16.932;2023-05-17T02:25:58;21.30;;;13.05;;
45893;SDS011;31603;51.148;16.932;2023-05-17T02:28:25;19.67;;;11.73;;
45893;SDS011;31603;51.148;16.932;2023-05-17T02:30:51;22.45;;;12.68;;
45893;SDS011;31603;51.148;16.932;2023-05-17T02:33:18;17.85;;;11.20;;
45893;SDS011;31603;51.148;16.932;2023-05-17T02:35:47;16.42;;;11.07;;
45893;SDS011;31603;51.148;16.932;2023-05-17T02:38:13;16.42;;;10.55;;
45893;SDS011;31603;51.148;16.932;2023-05-17T02:40:40;19.92;;;11.38;;
45893;SDS011;31603;51.148;16.932;2023-05-17T02:43:06;15.00;;;9.48;;
45893;SDS011;31603;51.148;16.932;2023-05-17T02:45:32;16.17;;;9.70;;
45893;SDS011;31603;51.148;16.932;2023-05-17T02:47:59;13.23;;;8.95;;
45893;SDS011;31603;51.148;16.932;2023-05-17T02:50:25;15.68;;;8.57;;
45893;SDS011;31603;51.148;16.932;2023-05-17T02:52:53;14.25;;;9.18;;
45893;SDS011;31603;51.148;16.932;2023-05-17T02:55:19;16.55;;;8.88;;
45893;SDS011;31603;51.148;16.932;2023-05-17T02:57:45;14.15;;;8.65;;
45893;SDS011;31603;51.148;16.932;2023-05-17T03:00:12;15.82;;;8.48;;
45893;SDS011;31603;51.148;16.932;2023-05-17T03:02:38;18.40;;;9.18;;
45893;SDS011;31603;51.148;16.932;2023-05-17T03:05:05;13.23;;;8.00;;
45893;SDS011;31603;51.148;16.932;2023-05-17T03:07:32;13.38;;;8.23;;
45893;SDS011;31603;51.148;16.932;2023-05-17T03:10:00;13.07;;;7.40;;
45893;SDS011;31603;51.148;16.932;2023-05-17T03:12:26;13.02;;;7.28;;
45893;SDS011;31603;51.148;16.932;2023-05-17T03:14:52;14.73;;;7.70;;
45893;SDS011;31603;51.148;16.932;2023-05-17T03:17:18;12.23;;;6.88;;
45893;SDS011;31603;51.148;16.932;2023-05-17T03:19:45;11.32;;;6.13;;
45893;SDS011;31603;51.148;16.932;2023-05-17T03:22:11;11.82;;;6.75;;
45893;SDS011;31603;51.148;16.932;2023-05-17T03:24:37;12.32;;;6.38;;
45893;SDS011;31603;51.148;16.932;2023-05-17T03:27:05;13.98;;;6.90;;
45893;SDS011;31603;51.148;16.932;2023-05-17T03:29:31;12.40;;;6.82;;
45893;SDS011;31603;51.148;16.932;2023-05-17T03:31:58;11.55;;;6.20;;
45893;SDS011;31603;51.148;16.932;2023-05-17T03:34:24;11.18;;;6.50;;
45893;SDS011;31603;51.148;16.932;2023-05-17T03:36:50;14.40;;;6.28;;
45893;SDS011;31603;51.148;16.932;2023-05-17T03:39:16;9.13;;;5.72;;
45893;SDS011;31603;51.148;16.932;2023-05-17T03:41:42;15.45;;;6.43;;
45893;SDS011;31603;51.148;16.932;2023-05-17T03:44:10;12.15;;;5.88;;
45893;SDS011;31603;51.148;16.932;2023-05-17T03:46:36;9.20;;;5.93;;
45893;SDS011;31603;51.148;16.932;2023-05-17T03:49:03;8.77;;;5.78;;
45893;SDS011;31603;51.148;16.932;2023-05-17T03:51:29;8.77;;;5.57;;
45893;SDS011;31603;51.148;16.932;2023-05-17T03:53:58;10.70;;;5.43;;
45893;SDS011;31603;51.148;16.932;2023-05-17T03:56:25;17.17;;;5.65;;
45893;SDS011;31603;51.148;16.932;2023-05-17T03:58:51;10.68;;;5.00;;
45893;SDS011;31603;51.148;16.932;2023-05-17T04:01:19;11.90;;;5.25;;
45893;SDS011;31603;51.148;16.932;2023-05-17T04:03:45;8.45;;;4.90;;
45893;SDS011;31603;51.148;16.932;2023-05-17T04:06:12;7.68;;;4.57;;
45893;SDS011;31603;51.148;16.932;2023-05-17T04:08:38;11.48;;;4.97;;
45893;SDS011;31603;51.148;16.932;2023-05-17T04:11:05;7.05;;;4.25;;
45893;SDS011;31603;51.148;16.932;2023-05-17T04:16:03;9.63;;;4.13;;
45893;SDS011;31603;51.148;16.932;2023-05-17T04:18:33;8.25;;;4.80;;
45893;SDS011;31603;51.148;16.932;2023-05-17T04:20:59;14.30;;;5.03;;
45893;SDS011;31603;51.148;16.932;2023-05-17T04:23:25;11.27;;;4.40;;
45893;SDS011;31603;51.148;16.932;2023-05-17T04:25:51;6.20;;;4.03;;
45893;SDS011;31603;51.148;16.932;2023-05-17T04:28:18;11.25;;;5.30;;
45893;SDS011;31603;51.148;16.932;2023-05-17T04:30:45;12.13;;;4.45;;
45893;SDS011;31603;51.148;16.932;2023-05-17T04:33:12;8.35;;;4.22;;
45893;SDS011;31603;51.148;16.932;2023-05-17T04:35:40;10.25;;;4.07;;
45893;SDS011;31603;51.148;16.932;2023-05-17T04:38:07;9.30;;;4.45;;
45893;SDS011;31603;51.148;16.932;2023-05-17T04:40:33;9.85;;;4.25;;
45893;SDS011;31603;51.148;16.932;2023-05-17T04:43:00;12.68;;;6.40;;
45893;SDS011;31603;51.148;16.932;2023-05-17T04:45:26;9.02;;;3.92;;
45893;SDS011;31603;51.148;16.932;2023-05-17T04:47:52;6.13;;;3.20;;
45893;SDS011;31603;51.148;16.932;2023-05-17T04:50:19;7.43;;;3.42;;
45893;SDS011;31603;51.148;16.932;2023-05-17T04:52:47;9.93;;;3.83;;
45893;SDS011;31603;51.148;16.932;2023-05-17T04:55:13;11.70;;;3.17;;
45893;SDS011;31603;51.148;16.932;2023-05-17T04:57:39;6.07;;;3.80;;
45893;SDS011;31603;51.148;16.932;2023-05-17T05:00:06;7.90;;;3.42;;
45893;SDS011;31603;51.148;16.932;2023-05-17T05:02:34;7.88;;;3.83;;
45893;SDS011;31603;51.148;16.932;2023-05-17T05:05:00;8.60;;;3.92;;
45893;SDS011;31603;51.148;16.932;2023-05-17T05:07:27;7.97;;;3.88;;
45893;SDS011;31603;51.148;16.932;2023-05-17T05:09:55;8.13;;;3.17;;
45893;SDS011;31603;51.148;16.932;2023-05-17T05:12:21;6.00;;;2.78;;
45893;SDS011;31603;51.148;16.932;2023-05-17T05:14:47;7.18;;;3.20;;
45893;SDS011;31603;51.148;16.932;2023-05-17T05:17:14;7.55;;;3.13;;
45893;SDS011;31603;51.148;16.932;2023-05-17T05:19:40;7.60;;;2.92;;
45893;SDS011;31603;51.148;16.932;2023-05-17T05:22:06;7.68;;;2.63;;
45893;SDS011;31603;51.148;16.932;2023-05-17T05:24:32;7.80;;;2.67;;
45893;SDS011;31603;51.148;16.932;2023-05-17T05:27:00;8.77;;;2.70;;
45893;SDS011;31603;51.148;16.932;2023-05-17T05:29:26;5.18;;;2.30;;
45893;SDS011;31603;51.148;16.932;2023-05-17T05:31:52;6.68;;;2.40;;
45893;SDS011;31603;51.148;16.932;2023-05-17T05:34:19;6.80;;;2.97;;
45893;SDS011;31603;51.148;16.932;2023-05-17T05:36:45;6.43;;;2.63;;
45893;SDS011;31603;51.148;16.932;2023-05-17T05:39:11;6.90;;;2.40;;
45893;SDS011;31603;51.148;16.932;2023-05-17T05:41:37;7.85;;;2.47;;
45893;SDS011;31603;51.148;16.932;2023-05-17T05:44:05;7.22;;;2.35;;
45893;SDS011;31603;51.148;16.932;2023-05-17T05:46:31;10.57;;;3.10;;
45893;SDS011;31603;51.148;16.932;2023-05-17T05:48:57;7.70;;;2.63;;
45893;SDS011;31603;51.148;16.932;2023-05-17T05:51:24;9.43;;;2.45;;
45893;SDS011;31603;51.148;16.932;2023-05-17T05:53:50;5.15;;;2.13;;
45893;SDS011;31603;51.148;16.932;2023-05-17T05:56:16;7.70;;;2.15;;
45893;SDS011;31603;51.148;16.932;2023-05-17T05:58:42;7.03;;;1.98;;
45893;SDS011;31603;51.148;16.932;2023-05-17T06:01:10;6.45;;;2.33;;
45893;SDS011;31603;51.148;16.932;2023-05-17T06:03:36;6.65;;;2.13;;
45893;SDS011;31603;51.148;16.932;2023-05-17T06:06:03;9.45;;;2.00;;
45893;SDS011;31603;51.148;16.932;2023-05-17T06:08:29;6.57;;;1.80;;
45893;SDS011;31603;51.148;16.932;2023-05-17T06:10:55;6.82;;;2.33;;
45893;SDS011;31603;51.148;16.932;2023-05-17T06:13:21;4.88;;;1.98;;
45893;SDS011;31603;51.148;16.932;2023-05-17T06:15:48;5.50;;;2.10;;
45893;SDS011;31603;51.148;16.932;2023-05-17T06:18:16;8.93;;;2.35;;
45893;SDS011;31603;51.148;16.932;2023-05-17T06:20:42;8.73;;;2.50;;
45893;SDS011;31603;51.148;16.932;2023-05-17T06:23:08;9.88;;;2.53;;
45893;SDS011;31603;51.148;16.932;2023-05-17T06:25:35;5.70;;;1.75;;
45893;SDS011;31603;51.148;16.932;2023-05-17T06:28:02;8.05;;;2.10;;
45893;SDS011;31603;51.148;16.932;2023-05-17T06:30:28;6.18;;;2.10;;
45893;SDS011;31603;51.148;16.932;2023-05-17T06:32:54;7.50;;;2.40;;
45893;SDS011;31603;51.148;16.932;2023-05-17T06:35:22;8.68;;;2.28;;
45893;SDS011;31603;51.148;16.932;2023-05-17T06:37:48;6.80;;;2.78;;
45893;SDS011;31603;51.148;16.932;2023-05-17T06:40:14;5.15;;;2.33;;
45893;SDS011;31603;51.148;16.932;2023-05-17T06:42:41;8.70;;;1.80;;
45893;SDS011;31603;51.148;16.932;2023-05-17T06:45:07;5.63;;;2.28;;
45893;SDS011;31603;51.148;16.932;2023-05-17T06:47:34;8.68;;;2.58;;
45893;SDS011;31603;51.148;16.932;2023-05-17T06:50:00;6.70;;;2.30;;
45893;SDS011;31603;51.148;16.932;2023-05-17T06:52:28;9.40;;;2.70;;
45893;SDS011;31603;51.148;16.932;2023-05-17T06:54:54;10.98;;;2.72;;
45893;SDS011;31603;51.148;16.932;2023-05-17T06:57:20;8.30;;;2.55;;
45893;SDS011;31603;51.148;16.932;2023-05-17T06:59:46;14.48;;;2.80;;
45893;SDS011;31603;51.148;16.932;2023-05-17T07:02:12;9.63;;;2.75;;
45893;SDS011;31603;51.148;16.932;2023-05-17T07:04:39;8.30;;;2.75;;
45893;SDS011;31603;51.148;16.932;2023-05-17T07:07:05;7.90;;;3.10;;
45893;SDS011;31603;51.148;16.932;2023-05-17T07:09:32;8.60;;;2.72;;
45893;SDS011;31603;51.148;16.932;2023-05-17T07:11:59;9.25;;;3.00;;
45893;SDS011;31603;51.148;16.932;2023-05-17T07:14:25;8.93;;;2.97;;
45893;SDS011;31603;51.148;16.932;2023-05-17T07:16:51;13.73;;;3.22;;
45893;SDS011;31603;51.148;16.932;2023-05-17T07:19:17;14.25;;;4.10;;
45893;SDS011;31603;51.148;16.932;2023-05-17T07:21:44;8.00;;;2.80;;
45893;SDS011;31603;51.148;16.932;2023-05-17T07:24:10;6.68;;;2.60;;
45893;SDS011;31603;51.148;16.932;2023-05-17T07:26:37;9.55;;;4.38;;
45893;SDS011;31603;51.148;16.932;2023-05-17T07:29:04;10.98;;;3.25;;
45893;SDS011;31603;51.148;16.932;2023-05-17T07:31:30;10.98;;;3.17;;
45893;SDS011;31603;51.148;16.932;2023-05-17T07:33:56;11.07;;;3.63;;
45893;SDS011;31603;51.148;16.932;2023-05-17T07:36:22;9.02;;;2.90;;
45893;SDS011;31603;51.148;16.932;2023-05-17T07:38:51;8.52;;;3.15;;
45893;SDS011;31603;51.148;16.932;2023-05-17T07:41:17;7.35;;;2.55;;
45893;SDS011;31603;51.148;16.932;2023-05-17T07:43:47;10.13;;;3.50;;
45893;SDS011;31603;51.148;16.932;2023-05-17T07:46:14;6.00;;;2.60;;
45893;SDS011;31603;51.148;16.932;2023-05-17T07:48:40;12.95;;;3.78;;
45893;SDS011;31603;51.148;16.932;2023-05-17T07:51:06;13.18;;;3.88;;
45893;SDS011;31603;51.148;16.932;2023-05-17T07:53:33;20.40;;;4.78;;
45893;SDS011;31603;51.148;16.932;2023-05-17T07:55:59;20.42;;;4.28;;
45893;SDS011;31603;51.148;16.932;2023-05-17T07:58:25;21.42;;;4.43;;
45893;SDS011;31603;51.148;16.932;2023-05-17T08:00:53;17.67;;;3.85;;
45893;SDS011;31603;51.148;16.932;2023-05-17T08:03:19;8.70;;;3.10;;
45893;SDS011;31603;51.148;16.932;2023-05-17T08:05:45;60.00;;;6.68;;
45893;SDS011;31603;51.148;16.932;2023-05-17T08:08:12;10.35;;;3.72;;
45893;SDS011;31603;51.148;16.932;2023-05-17T08:10:38;14.23;;;3.80;;
45893;SDS011;31603;51.148;16.932;2023-05-17T08:13:04;14.95;;;3.90;;
45893;SDS011;31603;51.148;16.932;2023-05-17T08:15:31;15.90;;;5.38;;
45893;SDS011;31603;51.148;16.932;2023-05-17T08:17:58;10.80;;;3.42;;
45893;SDS011;31603;51.148;16.932;2023-05-17T08:20:24;13.48;;;3.58;;
45893;SDS011;31603;51.148;16.932;2023-05-17T08:22:51;9.30;;;4.00;;
45893;SDS011;31603;51.148;16.932;2023-05-17T08:25:18;11.98;;;3.95;;
45893;SDS011;31603;51.148;16.932;2023-05-17T08:27:44;14.38;;;3.63;;
45893;SDS011;31603;51.148;16.932;2023-05-17T08:30:10;12.18;;;4.65;;
45893;SDS011;31603;51.148;16.932;2023-05-17T08:32:36;13.30;;;3.67;;
45893;SDS011;31603;51.148;16.932;2023-05-17T08:35:04;12.93;;;4.05;;
45893;SDS011;31603;51.148;16.932;2023-05-17T08:37:31;11.40;;;3.97;;
45893;SDS011;31603;51.148;16.932;2023-05-17T08:39:57;13.77;;;3.92;;
45893;SDS011;31603;51.148;16.932;2023-05-17T08:42:24;12.90;;;4.05;;
45893;SDS011;31603;51.148;16.932;2023-05-17T08:44:50;11.98;;;4.45;;
45893;SDS011;31603;51.148;16.932;2023-05-17T08:47:16;9.15;;;3.60;;
45893;SDS011;31603;51.148;16.932;2023-05-17T08:49:49;15.20;;;3.78;;
45893;SDS011;31603;51.148;16.932;2023-05-17T08:52:17;11.18;;;3.80;;
45893;SDS011;31603;51.148;16.932;2023-05-17T08:54:43;11.40;;;3.63;;
45893;SDS011;31603;51.148;16.932;2023-05-17T08:57:11;13.35;;;4.10;;
45893;SDS011;31603;51.148;16.932;2023-05-17T08:59:37;12.02;;;2.90;;
45893;SDS011;31603;51.148;16.932;2023-05-17T09:02:04;16.15;;;3.75;;
45893;SDS011;31603;51.148;16.932;2023-05-17T09:04:31;14.35;;;4.53;;
45893;SDS011;31603;51.148;16.932;2023-05-17T09:06:58;12.77;;;3.75;;
45893;SDS011;31603;51.148;16.932;2023-05-17T09:09:25;11.43;;;3.28;;
45893;SDS011;31603;51.148;16.932;2023-05-17T09:11:52;11.80;;;3.97;;
45893;SDS011;31603;51.148;16.932;2023-05-17T09:14:19;10.70;;;3.78;;
45893;SDS011;31603;51.148;16.932;2023-05-17T09:16:45;11.52;;;3.65;;
45893;SDS011;31603;51.148;16.932;2023-05-17T09:19:13;11.57;;;3.70;;
45893;SDS011;31603;51.148;16.932;2023-05-17T09:21:39;10.60;;;3.13;;
45893;SDS011;31603;51.148;16.932;2023-05-17T09:24:10;11.98;;;3.25;;
45893;SDS011;31603;51.148;16.932;2023-05-17T09:26:38;13.15;;;3.20;;
45893;SDS011;31603;51.148;16.932;2023-05-17T09:29:08;13.10;;;4.13;;
45893;SDS011;31603;51.148;16.932;2023-05-17T09:31:35;12.50;;;3.75;;
45893;SDS011;31603;51.148;16.932;2023-05-17T09:34:01;10.75;;;3.65;;
45893;SDS011;31603;51.148;16.932;2023-05-17T09:36:29;11.20;;;3.53;;
45893;SDS011;31603;51.148;16.932;2023-05-17T09:38:56;13.90;;;4.20;;
45893;SDS011;31603;51.148;16.932;2023-05-17T09:41:25;27.65;;;5.07;;
45893;SDS011;31603;51.148;16.932;2023-05-17T09:43:53;9.52;;;3.20;;
45893;SDS011;31603;51.148;16.932;2023-05-17T09:46:22;11.00;;;3.93;;
45893;SDS011;31603;51.148;16.932;2023-05-17T09:48:51;15.35;;;3.15;;
45893;SDS011;31603;51.148;16.932;2023-05-17T09:51:18;9.02;;;3.72;;
45893;SDS011;31603;51.148;16.932;2023-05-17T09:53:44;17.25;;;3.42;;
45893;SDS011;31603;51.148;16.932;2023-05-17T09:56:10;12.55;;;3.80;;
45893;SDS011;31603;51.148;16.932;2023-05-17T09:58:37;23.35;;;5.07;;
45893;SDS011;31603;51.148;16.932;2023-05-17T10:01:05;107.25;;;14.10;;
45893;SDS011;31603;51.148;16.932;2023-05-17T10:03:33;12.57;;;3.40;;
45893;SDS011;31603;51.148;16.932;2023-05-17T10:06:00;14.73;;;4.10;;
45893;SDS011;31603;51.148;16.932;2023-05-17T10:08:28;42.85;;;6.07;;
45893;SDS011;31603;51.148;16.932;2023-05-17T10:10:54;10.95;;;2.90;;
45893;SDS011;31603;51.148;16.932;2023-05-17T10:13:23;5.80;;;3.03;;
45893;SDS011;31603;51.148;16.932;2023-05-17T10:15:52;10.63;;;2.88;;
45893;SDS011;31603;51.148;16.932;2023-05-17T10:18:19;13.13;;;3.03;;
45893;SDS011;31603;51.148;16.932;2023-05-17T10:20:46;8.77;;;3.53;;
45893;SDS011;31603;51.148;16.932;2023-05-17T10:23:13;9.75;;;3.00;;
45893;SDS011;31603;51.148;16.932;2023-05-17T10:25:40;11.10;;;2.72;;
45893;SDS011;31603;51.148;16.932;2023-05-17T10:28:07;7.78;;;2.88;;
45893;SDS011;31603;51.148;16.932;2023-05-17T10:30:33;7.28;;;3.05;;
45893;SDS011;31603;51.148;16.932;2023-05-17T10:33:00;10.80;;;3.20;;
45893;SDS011;31603;51.148;16.932;2023-05-17T10:35:29;9.90;;;3.03;;
45893;SDS011;31603;51.148;16.932;2023-05-17T10:37:57;10.75;;;3.20;;
45893;SDS011;31603;51.148;16.932;2023-05-17T10:40:23;14.90;;;5.70;;
45893;SDS011;31603;51.148;16.932;2023-05-17T10:42:50;12.40;;;2.97;;
45893;SDS011;31603;51.148;16.932;2023-05-17T10:45:18;9.10;;;2.90;;
45893;SDS011;31603;51.148;16.932;2023-05-17T10:47:45;12.30;;;3.35;;
45893;SDS011;31603;51.148;16.932;2023-05-17T10:50:12;10.25;;;3.20;;
45893;SDS011;31603;51.148;16.932;2023-05-17T10:52:45;12.98;;;4.20;;
45893;SDS011;31603;51.148;16.932;2023-05-17T10:55:11;14.27;;;3.63;;
45893;SDS011;31603;51.148;16.932;2023-05-17T10:57:38;10.43;;;2.90;;
45893;SDS011;31603;51.148;16.932;2023-05-17T11:00:05;8.80;;;2.85;;
45893;SDS011;31603;51.148;16.932;2023-05-17T11:02:33;8.02;;;2.95;;
45893;SDS011;31603;51.148;16.932;2023-05-17T11:04:59;8.32;;;2.63;;
45893;SDS011;31603;51.148;16.932;2023-05-17T11:07:27;7.88;;;2.67;;
45893;SDS011;31603;51.148;16.932;2023-05-17T11:10:03;14.13;;;3.10;;
45893;SDS011;31603;51.148;16.932;2023-05-17T11:12:31;29.95;;;5.18;;
45893;SDS011;31603;51.148;16.932;2023-05-17T11:15:00;11.00;;;3.22;;
45893;SDS011;31603;51.148;16.932;2023-05-17T11:17:26;78.32;;;8.43;;
45893;SDS011;31603;51.148;16.932;2023-05-17T11:20:05;11.73;;;3.58;;
45893;SDS011;31603;51.148;16.932;2023-05-17T11:22:34;47.38;;;6.57;;
45893;SDS011;31603;51.148;16.932;2023-05-17T11:25:06;17.95;;;3.45;;
45893;SDS011;31603;51.148;16.932;2023-05-17T11:27:35;8.85;;;2.60;;
45893;SDS011;31603;51.148;16.932;2023-05-17T11:30:06;8.88;;;2.85;;
45893;SDS011;31603;51.148;16.932;2023-05-17T11:32:33;10.73;;;2.67;;
45893;SDS011;31603;51.148;16.932;2023-05-17T11:34:59;6.25;;;2.28;;
45893;SDS011;31603;51.148;16.932;2023-05-17T11:37:26;8.25;;;2.67;;
45893;SDS011;31603;51.148;16.932;2023-05-17T11:40:03;6.82;;;3.15;;
45893;SDS011;31603;51.148;16.932;2023-05-17T11:42:31;6.28;;;2.45;;
45893;SDS011;31603;51.148;16.932;2023-05-17T11:44:57;7.50;;;2.42;;
45893;SDS011;31603;51.148;16.932;2023-05-17T11:47:23;6.00;;;2.47;;
45893;SDS011;31603;51.148;16.932;2023-05-17T11:49:50;5.10;;;2.20;;
45893;SDS011;31603;51.148;16.932;2023-05-17T11:52:17;8.32;;;2.92;;
45893;SDS011;31603;51.148;16.932;2023-05-17T11:54:44;8.00;;;2.53;;
45893;SDS011;31603;51.148;16.932;2023-05-17T11:57:11;9.27;;;2.38;;
45893;SDS011;31603;51.148;16.932;2023-05-17T11:59:40;7.18;;;2.10;;
45893;SDS011;31603;51.148;16.932;2023-05-17T12:02:07;10.98;;;2.72;;
45893;SDS011;31603;51.148;16.932;2023-05-17T12:04:34;8.80;;;2.70;;
45893;SDS011;31603;51.148;16.932;2023-05-17T12:07:01;9.02;;;3.08;;
45893;SDS011;31603;51.148;16.932;2023-05-17T12:09:28;21.98;;;3.20;;
45893;SDS011;31603;51.148;16.932;2023-05-17T12:11:54;10.60;;;4.72;;
45893;SDS011;31603;51.148;16.932;2023-05-17T12:14:21;10.18;;;3.65;;
45893;SDS011;31603;51.148;16.932;2023-05-17T12:16:49;5.28;;;2.78;;
45893;SDS011;31603;51.148;16.932;2023-05-17T12:19:16;11.88;;;3.70;;
45893;SDS011;31603;51.148;16.932;2023-05-17T12:21:43;7.57;;;2.85;;
45893;SDS011;31603;51.148;16.932;2023-05-17T12:24:10;17.42;;;6.63;;
45893;SDS011;31603;51.148;16.932;2023-05-17T12:26:41;12.73;;;3.38;;
45893;SDS011;31603;51.148;16.932;2023-05-17T12:29:07;10.13;;;3.58;;
45893;SDS011;31603;51.148;16.932;2023-05-17T12:31:35;6.85;;;3.20;;
45893;SDS011;31603;51.148;16.932;2023-05-17T12:34:04;7.95;;;3.20;;
45893;SDS011;31603;51.148;16.932;2023-05-17T12:36:31;10.60;;;6.07;;
45893;SDS011;31603;51.148;16.932;2023-05-17T12:38:57;8.13;;;3.13;;
45893;SDS011;31603;51.148;16.932;2023-05-17T12:41:24;101.68;;;12.32;;
45893;SDS011;31603;51.148;16.932;2023-05-17T12:43:51;42.90;;;5.88;;
45893;SDS011;31603;51.148;16.932;2023-05-17T12:46:18;6.35;;;2.80;;
45893;SDS011;31603;51.148;16.932;2023-05-17T12:48:45;6.30;;;2.88;;
45893;SDS011;31603;51.148;16.932;2023-05-17T12:51:13;21.08;;;3.63;;
45893;SDS011;31603;51.148;16.932;2023-05-17T12:53:40;8.73;;;2.78;;
45893;SDS011;31603;51.148;16.932;2023-05-17T12:56:07;32.38;;;4.97;;
45893;SDS011;31603;51.148;16.932;2023-05-17T12:58:33;6.97;;;2.80;;
45893;SDS011;31603;51.148;16.932;2023-05-17T13:01:00;8.40;;;3.22;;
45893;SDS011;31603;51.148;16.932;2023-05-17T13:03:26;5.15;;;2.38;;
45893;SDS011;31603;51.148;16.932;2023-05-17T13:05:56;8.30;;;2.42;;
45893;SDS011;31603;51.148;16.932;2023-05-17T13:08:24;7.22;;;2.38;;
45893;SDS011;31603;51.148;16.932;2023-05-17T13:10:50;3.88;;;2.15;;
45893;SDS011;31603;51.148;16.932;2023-05-17T13:13:17;8.07;;;2.50;;
45893;SDS011;31603;51.148;16.932;2023-05-17T13:15:44;5.65;;;2.75;;
45893;SDS011;31603;51.148;16.932;2023-05-17T13:18:11;7.78;;;2.60;;
45893;SDS011;31603;51.148;16.932;2023-05-17T13:20:37;5.75;;;2.63;;
45893;SDS011;31603;51.148;16.932;2023-05-17T13:23:04;7.78;;;2.60;;
45893;SDS011;31603;51.148;16.932;2023-05-17T13:25:32;10.68;;;3.05;;
45893;SDS011;31603;51.148;16.932;2023-05-17T13:27:58;6.20;;;2.38;;
45893;SDS011;31603;51.148;16.932;2023-05-17T13:30:26;5.63;;;2.30;;
45893;SDS011;31603;51.148;16.932;2023-05-17T13:32:52;5.90;;;2.45;;
45893;SDS011;31603;51.148;16.932;2023-05-17T13:35:19;7.85;;;2.88;;
45893;SDS011;31603;51.148;16.932;2023-05-17T13:37:46;6.47;;;2.30;;
45893;SDS011;31603;51.148;16.932;2023-05-17T13:40:12;7.10;;;2.85;;
45893;SDS011;31603;51.148;16.932;2023-05-17T13:42:40;8.70;;;2.55;;
45893;SDS011;31603;51.148;16.932;2023-05-17T13:45:07;8.30;;;2.83;;
45893;SDS011;31603;51.148;16.932;2023-05-17T13:47:35;11.10;;;4.40;;
45893;SDS011;31603;51.148;16.932;2023-05-17T13:50:01;5.53;;;2.20;;
45893;SDS011;31603;51.148;16.932;2023-05-17T13:52:28;5.10;;;2.40;;
45893;SDS011;31603;51.148;16.932;2023-05-17T13:54:56;9.95;;;3.10;;
45893;SDS011;31603;51.148;16.932;2023-05-17T13:57:22;6.45;;;2.53;;
45893;SDS011;31603;51.148;16.932;2023-05-17T13:59:50;6.95;;;2.60;;
45893;SDS011;31603;51.148;16.932;2023-05-17T14:02:16;8.05;;;3.10;;
45893;SDS011;31603;51.148;16.932;2023-05-17T14:04:42;6.65;;;2.83;;
45893;SDS011;31603;51.148;16.932;2023-05-17T14:07:08;9.02;;;2.80;;
45893;SDS011;31603;51.148;16.932;2023-05-17T14:09:35;10.02;;;3.42;;
45893;SDS011;31603;51.148;16.932;2023-05-17T14:12:01;6.82;;;2.47;;
45893;SDS011;31603;51.148;16.932;2023-05-17T14:14:28;9.38;;;3.50;;
45893;SDS011;31603;51.148;16.932;2023-05-17T14:16:56;9.80;;;3.45;;
45893;SDS011;31603;51.148;16.932;2023-05-17T14:19:22;4.93;;;2.47;;
45893;SDS011;31603;51.148;16.932;2023-05-17T14:21:49;6.57;;;2.50;;
45893;SDS011;31603;51.148;16.932;2023-05-17T14:24:15;6.55;;;2.55;;